createdAt,value
2023-05-19T00:00:38.277Z,57.1082
2023-05-19T00:01:39.983Z,57.3738
2023-05-19T00:02:42.450Z,57.3226
2023-05-19T00:03:43.415Z,57.1030
2023-05-19T00:04:44.880Z,57.0204
2023-05-19T00:05:46.599Z,57.1744
2023-05-19T00:06:48.140Z,57.3858
2023-05-19T00:07:49.868Z,57.5455
2023-05-19T00:08:51.981Z,57.4390
2023-05-19T00:09:53.104Z,57.4404
2023-05-19T00:10:54.860Z,57.5214
2023-05-19T00:11:56.511Z,57.4957
2023-05-19T00:12:58.083Z,57.4020
2023-05-19T00:13:59.746Z,57.2932
2023-05-19T00:15:01.338Z,57.2433
2023-05-19T00:16:03.042Z,57.2990
2023-05-19T00:17:04.637Z,57.5733
2023-05-19T00:18:06.366Z,57.7012
2023-05-19T00:19:08.022Z,57.8050
2023-05-19T00:20:09.595Z,57.9534
2023-05-19T00:21:11.189Z,58.0228
2023-05-19T00:22:12.899Z,57.7876
2023-05-19T00:23:14.499Z,57.7481
2023-05-19T00:24:16.190Z,57.9056
2023-05-19T00:25:17.795Z,58.0691
2023-05-19T00:26:19.506Z,58.1544
2023-05-19T00:27:21.106Z,58.2478
2023-05-19T00:28:22.770Z,58.2066
2023-05-19T00:29:24.388Z,57.9006
2023-05-19T00:30:26.080Z,57.7734
2023-05-19T00:31:27.747Z,57.6337
2023-05-19T00:32:29.416Z,57.7993
2023-05-19T00:33:30.992Z,58.1068
2023-05-19T00:34:32.921Z,58.2702
2023-05-19T00:35:34.280Z,58.3550
2023-05-19T00:36:35.979Z,58.5185
2023-05-19T00:37:37.510Z,58.4997
2023-05-19T00:38:39.214Z,58.3390
2023-05-19T00:39:40.915Z,58.2056
2023-05-19T00:40:42.600Z,58.2088
2023-05-19T00:41:44.160Z,58.4461
2023-05-19T00:42:45.832Z,58.5796
2023-05-19T00:43:47.403Z,58.6124
2023-05-19T00:44:49.163Z,58.6993
2023-05-19T00:45:51.411Z,58.5952
2023-05-19T00:46:52.391Z,58.4169
2023-05-19T00:47:53.993Z,58.2900
2023-05-19T00:48:55.665Z,58.3160
2023-05-19T00:49:57.302Z,58.6201
2023-05-19T00:50:58.984Z,58.7018
2023-05-19T00:52:00.557Z,58.7731
2023-05-19T00:53:02.254Z,58.8237
2023-05-19T00:54:03.850Z,58.8896
2023-05-19T00:55:05.948Z,58.8941
2023-05-19T00:56:07.186Z,58.7232
2023-05-19T00:57:08.783Z,58.6390
2023-05-19T00:58:11.417Z,58.7597
2023-05-19T00:59:12.143Z,58.8537
2023-05-19T01:00:13.745Z,58.9443
2023-05-19T01:01:15.442Z,58.9052
2023-05-19T01:02:17.027Z,58.7126
2023-05-19T01:03:18.728Z,58.5889
2023-05-19T01:04:20.308Z,58.4299
2023-05-19T01:05:22.112Z,58.4701
2023-05-19T01:06:23.646Z,58.6439
2023-05-19T01:07:25.290Z,58.8573
2023-05-19T01:08:27.012Z,58.9810
2023-05-19T01:09:28.591Z,59.0767
2023-05-19T01:10:30.421Z,58.9563
2023-05-19T01:11:32.411Z,58.8971
2023-05-19T01:12:33.468Z,58.8593
2023-05-19T01:13:35.185Z,58.9853
2023-05-19T01:14:36.732Z,59.0958
2023-05-19T01:15:38.457Z,59.1373
2023-05-19T01:16:40.128Z,59.1602
2023-05-19T01:17:41.820Z,59.0563
2023-05-19T01:18:43.365Z,58.8894
2023-05-19T01:19:45.027Z,58.9117
2023-05-19T01:20:46.668Z,59.0373
2023-05-19T01:21:48.394Z,59.0453
2023-05-19T01:22:49.969Z,59.2365
2023-05-19T01:23:51.580Z,59.3632
2023-05-19T01:24:53.942Z,59.3190
2023-05-19T01:25:54.957Z,59.1664
2023-05-19T01:26:56.965Z,58.9763
2023-05-19T01:27:58.187Z,59.0308
2023-05-19T01:28:59.765Z,59.1758
2023-05-19T01:30:01.547Z,59.3050
2023-05-19T01:31:03.161Z,59.3611
2023-05-19T01:32:04.852Z,59.4915
2023-05-19T01:33:06.470Z,59.4105
2023-05-19T01:34:08.120Z,59.4122
2023-05-19T01:35:09.689Z,59.3934
2023-05-19T01:36:11.322Z,59.4146
2023-05-19T01:37:13.948Z,59.3194
2023-05-19T01:38:14.633Z,59.3373
2023-05-19T01:39:16.282Z,59.4314
2023-05-19T01:40:17.872Z,59.4864
2023-05-19T01:41:19.586Z,59.5199
2023-05-19T01:42:21.230Z,59.5541
2023-05-19T01:43:22.830Z,59.4808
2023-05-19T01:44:25.451Z,59.4786
2023-05-19T01:45:26.148Z,59.2813
2023-05-19T01:46:27.936Z,59.2672
2023-05-19T01:47:29.510Z,59.2709
2023-05-19T01:48:31.092Z,59.4684
2023-05-19T01:49:32.739Z,59.5537
2023-05-19T01:50:34.603Z,59.6630
2023-05-19T01:51:36.097Z,59.6012
2023-05-19T01:52:38.400Z,59.6192
2023-05-19T01:53:39.344Z,59.6525
2023-05-19T01:54:40.947Z,59.5974
2023-05-19T01:55:42.662Z,59.5414
2023-05-19T01:56:44.427Z,59.3890
2023-05-19T01:57:45.994Z,59.4576
2023-05-19T01:58:47.603Z,59.4837
2023-05-19T01:59:49.264Z,59.5322
2023-05-19T02:00:50.894Z,59.5909
2023-05-19T02:01:52.613Z,59.7093
2023-05-19T02:02:54.249Z,59.6034
2023-05-19T02:03:55.792Z,59.4863
2023-05-19T02:04:57.524Z,59.4978
2023-05-19T02:05:59.229Z,59.5316
2023-05-19T02:07:00.770Z,59.6899
2023-05-19T02:08:02.515Z,59.7685
2023-05-19T02:09:04.073Z,59.7183
2023-05-19T02:10:05.724Z,59.6685
2023-05-19T02:11:07.311Z,59.6195
2023-05-19T02:12:09.063Z,59.5348
2023-05-19T02:13:10.984Z,59.5531
2023-05-19T02:14:12.327Z,59.6985
2023-05-19T02:15:13.914Z,59.7631
2023-05-19T02:16:15.639Z,59.7434
2023-05-19T02:17:17.241Z,59.6783
2023-05-19T02:18:18.883Z,59.6404
2023-05-19T02:19:20.667Z,59.4519
2023-05-19T02:20:22.206Z,59.4299
2023-05-19T02:21:23.818Z,59.5081
2023-05-19T02:22:25.464Z,59.7082
2023-05-19T02:23:27.111Z,59.8078
2023-05-19T02:24:28.744Z,59.7972
2023-05-19T02:25:30.390Z,59.7818
2023-05-19T02:26:32.020Z,59.7728
2023-05-19T02:27:33.932Z,59.7372
2023-05-19T02:28:35.360Z,59.7765
2023-05-19T02:29:37.912Z,59.7038
2023-05-19T02:30:38.596Z,59.6817
2023-05-19T02:31:40.308Z,59.6373
2023-05-19T02:32:41.962Z,59.5672
2023-05-19T02:33:43.940Z,59.4439
2023-05-19T02:34:45.215Z,59.5649
2023-05-19T02:35:46.786Z,59.7334
2023-05-19T02:36:48.439Z,59.8255
2023-05-19T02:37:50.224Z,59.8145
2023-05-19T02:38:51.756Z,59.8831
2023-05-19T02:39:53.391Z,59.8208
2023-05-19T02:40:55.141Z,59.6274
2023-05-19T02:41:56.756Z,59.7210
2023-05-19T02:42:58.356Z,59.7813
2023-05-19T02:44:00.476Z,59.8288
2023-05-19T02:45:01.602Z,59.7544
2023-05-19T02:46:03.317Z,59.7110
2023-05-19T02:47:04.882Z,59.6403
2023-05-19T02:48:06.699Z,59.5763
2023-05-19T02:49:08.315Z,59.6738
2023-05-19T02:50:09.924Z,59.8118
2023-05-19T02:51:11.562Z,59.8857
2023-05-19T02:52:13.318Z,60.0651
2023-05-19T02:53:15.064Z,59.7660
2023-05-19T02:54:17.006Z,58.8472
2023-05-19T02:55:18.124Z,57.7153
2023-05-19T02:56:19.819Z,55.8675
2023-05-19T02:57:21.427Z,53.9853
2023-05-19T02:58:23.165Z,53.6129
2023-05-19T02:59:25.715Z,53.9361
2023-05-19T03:00:26.366Z,54.3166
2023-05-19T03:01:28.062Z,54.6462
2023-05-19T03:02:29.764Z,54.8331
2023-05-19T03:03:31.436Z,54.8840
2023-05-19T03:04:32.943Z,54.7607
2023-05-19T03:05:34.659Z,54.7963
2023-05-19T03:06:36.269Z,54.9199
2023-05-19T03:07:38.582Z,55.0969
2023-05-19T03:08:42.176Z,55.1949
2023-05-19T03:09:41.188Z,55.0289
2023-05-19T03:10:42.708Z,54.8322
2023-05-19T03:11:44.393Z,54.9389
2023-05-19T03:12:46.010Z,55.2675
2023-05-19T03:13:47.728Z,55.5246
2023-05-19T03:14:49.390Z,55.5903
2023-05-19T03:15:50.963Z,55.5159
2023-05-19T03:16:52.846Z,55.2087
2023-05-19T03:17:54.278Z,54.9884
2023-05-19T03:18:55.899Z,54.9550
2023-05-19T03:19:57.553Z,55.0473
2023-05-19T03:20:59.179Z,55.1937
2023-05-19T03:22:00.767Z,55.4089
2023-05-19T03:23:02.384Z,55.3644
2023-05-19T03:24:04.108Z,55.0604
2023-05-19T03:25:09.003Z,54.8827
2023-05-19T03:26:07.366Z,54.8692
2023-05-19T03:27:09.029Z,54.9921
2023-05-19T03:28:10.663Z,55.1126
2023-05-19T03:29:12.275Z,55.3196
2023-05-19T03:30:15.017Z,55.6374
2023-05-19T03:31:15.582Z,55.5672
2023-05-19T03:32:17.249Z,55.1829
2023-05-19T03:33:18.927Z,54.8826
2023-05-19T03:34:21.495Z,54.7216
2023-05-19T03:35:22.155Z,54.8192
2023-05-19T03:36:23.745Z,54.9341
2023-05-19T03:37:25.411Z,55.1049
2023-05-19T03:38:27.048Z,55.0904
2023-05-19T03:39:28.660Z,55.1727
2023-05-19T03:40:30.554Z,55.2870
2023-05-19T03:41:32.040Z,55.1158
2023-05-19T03:42:33.693Z,55.2061
2023-05-19T03:43:35.324Z,55.3672
2023-05-19T03:44:36.965Z,55.3907
2023-05-19T03:45:38.681Z,55.4039
2023-05-19T03:46:40.273Z,55.3143
2023-05-19T03:47:41.914Z,55.3045
2023-05-19T03:48:43.578Z,55.3392
2023-05-19T03:49:45.176Z,55.2968
2023-05-19T03:50:46.869Z,55.1858
2023-05-19T03:51:48.443Z,55.2151
2023-05-19T03:52:50.127Z,55.2418
2023-05-19T03:53:51.775Z,55.1892
2023-05-19T03:54:54.482Z,55.0319
2023-05-19T03:55:55.443Z,55.0042
2023-05-19T03:56:56.694Z,55.0715
2023-05-19T03:57:58.373Z,55.0358
2023-05-19T03:59:00.029Z,55.2119
2023-05-19T04:00:01.789Z,55.2123
2023-05-19T04:01:03.373Z,55.2241
2023-05-19T04:02:04.934Z,55.2343
2023-05-19T04:03:06.632Z,55.2607
2023-05-19T04:04:08.269Z,55.2429
2023-05-19T04:05:10.001Z,55.2725
2023-05-19T04:06:11.522Z,55.2323
2023-05-19T04:07:13.181Z,55.1855
2023-05-19T04:08:14.776Z,55.1524
2023-05-19T04:09:16.452Z,55.1220
2023-05-19T04:10:19.239Z,55.0165
2023-05-19T04:11:19.904Z,55.1542
2023-05-19T04:12:21.571Z,55.2135
2023-05-19T04:13:23.237Z,55.2616
2023-05-19T04:14:25.769Z,55.2409
2023-05-19T04:15:27.327Z,55.2756
2023-05-19T04:16:28.224Z,55.1669
2023-05-19T04:17:29.769Z,55.1294
2023-05-19T04:18:31.434Z,55.2622
2023-05-19T04:19:33.027Z,55.2763
2023-05-19T04:20:35.158Z,55.3073
2023-05-19T04:21:36.288Z,55.2375
2023-05-19T04:22:37.972Z,55.2651
2023-05-19T04:23:39.615Z,55.2170
2023-05-19T04:24:41.274Z,55.0734
2023-05-19T04:25:42.940Z,54.9741
2023-05-19T04:26:44.573Z,55.0253
2023-05-19T04:27:46.235Z,55.1262
2023-05-19T04:28:47.879Z,55.1822
2023-05-19T04:29:49.469Z,55.1502
2023-05-19T04:30:51.307Z,55.0652
2023-05-19T04:31:52.779Z,54.9885
2023-05-19T04:32:55.431Z,55.0330
2023-05-19T04:33:55.973Z,55.0657
2023-05-19T04:34:57.754Z,55.1077
2023-05-19T04:35:59.405Z,55.1245
2023-05-19T04:37:01.029Z,55.1688
2023-05-19T04:38:02.664Z,55.1432
2023-05-19T04:39:04.286Z,55.0388
2023-05-19T04:40:06.176Z,54.9795
2023-05-19T04:41:07.558Z,54.9321
2023-05-19T04:42:09.234Z,55.0614
2023-05-19T04:43:10.866Z,55.2461
2023-05-19T04:44:12.479Z,55.2495
2023-05-19T04:45:14.336Z,55.1916
2023-05-19T04:46:16.902Z,55.3522
2023-05-19T04:47:17.323Z,54.9250
2023-05-19T04:48:19.106Z,54.6589
2023-05-19T04:49:20.649Z,54.7349
2023-05-19T04:50:22.423Z,54.8424
2023-05-19T04:51:24.031Z,54.7117
2023-05-19T04:52:25.719Z,54.5086
2023-05-19T04:53:27.277Z,54.1691
2023-05-19T04:54:28.966Z,53.6890
2023-05-19T04:55:30.551Z,53.1999
2023-05-19T04:56:32.328Z,52.8855
2023-05-19T04:57:33.821Z,52.4568
2023-05-19T04:58:35.475Z,52.0359
2023-05-19T04:59:37.690Z,51.7327
2023-05-19T05:00:38.749Z,51.6122
2023-05-19T05:01:40.519Z,51.2103
2023-05-19T05:02:43.251Z,50.0361
2023-05-19T05:03:43.731Z,49.2985
2023-05-19T05:04:45.291Z,49.0233
2023-05-19T05:05:46.969Z,49.0018
2023-05-19T05:06:48.673Z,48.8310
2023-05-19T05:07:51.187Z,48.3738
2023-05-19T05:08:51.857Z,48.4524
2023-05-19T05:09:53.441Z,48.5087
2023-05-19T05:10:55.125Z,48.2689
2023-05-19T05:11:56.904Z,48.1280
2023-05-19T05:12:58.427Z,47.8003
2023-05-19T05:14:00.178Z,47.4230
2023-05-19T05:15:01.788Z,47.7020
2023-05-19T05:16:03.442Z,47.4208
2023-05-19T05:17:05.211Z,47.6005
2023-05-19T05:18:06.704Z,47.2089
2023-05-19T05:19:08.341Z,47.4705
2023-05-19T05:20:09.954Z,47.6870
2023-05-19T05:21:11.604Z,47.5135
2023-05-19T05:22:13.278Z,47.3367
2023-05-19T05:23:14.925Z,46.9669
2023-05-19T05:24:16.476Z,47.3693
2023-05-19T05:25:18.272Z,47.4277
2023-05-19T05:26:19.838Z,47.4246
2023-05-19T05:27:21.564Z,47.1843
2023-05-19T05:28:23.084Z,47.0808
2023-05-19T05:29:24.790Z,46.8932
2023-05-19T05:30:26.335Z,47.5732
2023-05-19T05:31:28.016Z,47.2551
2023-05-19T05:32:30.809Z,47.1347
2023-05-19T05:33:31.190Z,47.1465
2023-05-19T05:34:33.043Z,46.7596
2023-05-19T05:35:34.676Z,47.1694
2023-05-19T05:36:36.328Z,46.9233
2023-05-19T05:37:37.912Z,46.8287
2023-05-19T05:38:39.611Z,46.6369
2023-05-19T05:39:42.198Z,46.4479
2023-05-19T05:40:42.809Z,46.8964
2023-05-19T05:41:44.491Z,46.9914
2023-05-19T05:42:46.178Z,46.8986
2023-05-19T05:43:48.754Z,46.7677
2023-05-19T05:44:50.373Z,46.6822
2023-05-19T05:45:51.097Z,46.8011
2023-05-19T05:46:52.712Z,47.8698
2023-05-19T05:47:55.261Z,47.4829
2023-05-19T05:48:56.958Z,47.3745
2023-05-19T05:49:58.491Z,47.5318
2023-05-19T05:50:59.361Z,47.0340
2023-05-19T05:52:06.428Z,47.5942
2023-05-19T05:53:02.528Z,47.4025
2023-05-19T05:54:04.084Z,47.0598
2023-05-19T05:55:05.807Z,47.3524
2023-05-19T05:56:07.436Z,47.0533
2023-05-19T05:57:09.113Z,47.8953
2023-05-19T05:58:10.724Z,47.9183
2023-05-19T05:59:12.338Z,47.3976
2023-05-19T06:00:13.993Z,47.2758
2023-05-19T06:01:15.689Z,47.5656
2023-05-19T06:02:17.331Z,47.4895
2023-05-19T06:03:19.061Z,47.8449
2023-05-19T06:04:20.573Z,47.4281
2023-05-19T06:05:23.128Z,47.0843
2023-05-19T06:06:23.881Z,47.4091
2023-05-19T06:07:25.573Z,46.9998
2023-05-19T06:08:27.150Z,47.8955
2023-05-19T06:09:28.754Z,47.2851
2023-05-19T06:10:30.552Z,47.4952
2023-05-19T06:11:32.058Z,47.4906
2023-05-19T06:12:33.663Z,46.9066
2023-05-19T06:13:35.572Z,47.7671
2023-05-19T06:14:36.956Z,47.5543
2023-05-19T06:15:38.679Z,47.3185
2023-05-19T06:16:40.331Z,47.3547
2023-05-19T06:17:41.960Z,46.9802
2023-05-19T06:18:43.637Z,47.5618
2023-05-19T06:19:45.302Z,47.5924
2023-05-19T06:20:46.897Z,47.2724
2023-05-19T06:21:48.504Z,47.1194
2023-05-19T06:22:50.083Z,46.8957
2023-05-19T06:23:51.848Z,47.2987
2023-05-19T06:24:53.389Z,47.5394
2023-05-19T06:25:55.071Z,47.7036
2023-05-19T06:26:56.808Z,47.9542
2023-05-19T06:27:58.433Z,48.0920
2023-05-19T06:29:00.126Z,47.1931
2023-05-19T06:30:01.726Z,48.2788
2023-05-19T06:31:03.312Z,48.0679
2023-05-19T06:32:04.912Z,47.5061
2023-05-19T06:33:06.601Z,47.7764
2023-05-19T06:34:08.263Z,47.3226
2023-05-19T06:35:09.844Z,48.0029
2023-05-19T06:36:11.448Z,47.7779
2023-05-19T06:37:13.245Z,48.0747
2023-05-19T06:38:14.799Z,47.9713
2023-05-19T06:39:17.121Z,47.2512
2023-05-19T06:40:18.072Z,48.5188
2023-05-19T06:41:19.698Z,49.0734
2023-05-19T06:42:21.335Z,48.4154
2023-05-19T06:43:22.991Z,48.0910
2023-05-19T06:44:24.708Z,47.8419
2023-05-19T06:45:26.271Z,47.8643
2023-05-19T06:46:27.971Z,48.5115
2023-05-19T06:47:29.656Z,48.1507
2023-05-19T06:48:31.224Z,48.1841
2023-05-19T06:49:33.136Z,48.0994
2023-05-19T06:50:34.849Z,47.3990
2023-05-19T06:51:36.184Z,48.0773
2023-05-19T06:52:37.790Z,48.1286
2023-05-19T06:53:39.501Z,48.3282
2023-05-19T06:54:41.247Z,48.5705
2023-05-19T06:55:57.499Z,47.4128
2023-05-19T06:56:44.500Z,48.5877
2023-05-19T06:57:46.098Z,48.3724
2023-05-19T06:58:47.753Z,47.6759
2023-05-19T06:59:49.448Z,47.7629
2023-05-19T07:00:51.013Z,47.0148
2023-05-19T07:01:52.770Z,48.1226
2023-05-19T07:02:55.128Z,49.0031
2023-05-19T07:03:56.068Z,48.3419
2023-05-19T07:04:58.087Z,48.1508
2023-05-19T07:05:59.609Z,48.0002
2023-05-19T07:07:00.873Z,47.3976
2023-05-19T07:08:02.586Z,48.1562
2023-05-19T07:09:04.225Z,48.3208
2023-05-19T07:10:05.831Z,48.2407
2023-05-19T07:11:07.469Z,48.1140
2023-05-19T07:12:09.105Z,47.2107
2023-05-19T07:13:10.748Z,48.7077
2023-05-19T07:14:12.387Z,47.6970
2023-05-19T07:15:14.075Z,48.3406
2023-05-19T07:16:15.728Z,48.6228
2023-05-19T07:17:17.314Z,47.6496
2023-05-19T07:18:19.095Z,47.9340
2023-05-19T07:19:20.762Z,48.2273
2023-05-19T07:20:23.147Z,47.7278
2023-05-19T07:21:23.880Z,48.0249
2023-05-19T07:22:25.586Z,47.2387
2023-05-19T07:23:27.125Z,47.5698
2023-05-19T07:24:28.810Z,48.1720
2023-05-19T07:25:30.486Z,48.4211
2023-05-19T07:26:32.050Z,48.2456
2023-05-19T07:27:33.663Z,48.0341
2023-05-19T07:28:35.298Z,47.3890
2023-05-19T07:29:36.952Z,48.4410
2023-05-19T07:30:38.590Z,48.3353
2023-05-19T07:31:41.091Z,48.8481
2023-05-19T07:32:41.896Z,48.6470
2023-05-19T07:33:43.496Z,47.6318
2023-05-19T07:34:45.206Z,48.9985
2023-05-19T07:35:46.878Z,48.8275
2023-05-19T07:36:48.568Z,49.0649
2023-05-19T07:37:50.055Z,48.4337
2023-05-19T07:38:51.778Z,47.3575
2023-05-19T07:39:53.384Z,48.3308
2023-05-19T07:40:55.151Z,48.6687
2023-05-19T07:41:56.711Z,48.9888
2023-05-19T07:42:58.306Z,48.3959
2023-05-19T07:43:59.944Z,47.6365
2023-05-19T07:45:01.748Z,48.9364
2023-05-19T07:46:03.589Z,49.3137
2023-05-19T07:47:05.064Z,48.9420
2023-05-19T07:48:06.826Z,48.6793
2023-05-19T07:49:09.323Z,47.7376
2023-05-19T07:50:09.931Z,48.9777
2023-05-19T07:51:11.806Z,48.9167
2023-05-19T07:52:13.389Z,48.8390
2023-05-19T07:53:15.904Z,49.5741
2023-05-19T07:54:16.465Z,49.0488
2023-05-19T07:55:19.100Z,47.9889
2023-05-19T07:56:19.871Z,48.7060
2023-05-19T07:57:21.588Z,48.7141
2023-05-19T07:58:24.269Z,49.7170
2023-05-19T07:59:25.652Z,49.1129
2023-05-19T08:00:26.430Z,48.0198
2023-05-19T08:01:29.049Z,48.9896
2023-05-19T08:02:29.771Z,49.1321
2023-05-19T08:03:31.406Z,48.3990
2023-05-19T08:04:33.069Z,48.0543
2023-05-19T08:05:34.631Z,47.4470
2023-05-19T08:06:36.348Z,48.4087
2023-05-19T08:07:38.032Z,48.6583
2023-05-19T08:08:39.573Z,48.1911
2023-05-19T08:09:41.243Z,49.0867
2023-05-19T08:10:42.884Z,48.1196
2023-05-19T08:11:44.467Z,48.0875
2023-05-19T08:12:46.750Z,49.1421
2023-05-19T08:13:47.705Z,48.7672
2023-05-19T08:14:49.476Z,49.3032
2023-05-19T08:15:51.123Z,48.7261
2023-05-19T08:16:52.716Z,47.8273
2023-05-19T08:17:54.402Z,48.5686
2023-05-19T08:18:56.081Z,48.5814
2023-05-19T08:19:57.798Z,48.9531
2023-05-19T08:21:00.349Z,49.3898
2023-05-19T08:22:00.821Z,48.5567
2023-05-19T08:23:02.564Z,48.1500
2023-05-19T08:24:04.249Z,49.3423
2023-05-19T08:25:05.904Z,49.0527
2023-05-19T08:26:07.488Z,49.7180
2023-05-19T08:27:09.148Z,49.1934
2023-05-19T08:28:10.752Z,47.9029
2023-05-19T08:29:12.486Z,49.3107
2023-05-19T08:30:14.214Z,48.9814
2023-05-19T08:31:15.813Z,49.6592
2023-05-19T08:32:17.439Z,49.1588
2023-05-19T08:33:19.039Z,48.0933
2023-05-19T08:34:20.757Z,48.8878
2023-05-19T08:35:23.397Z,48.2851
2023-05-19T08:36:24.187Z,48.3604
2023-05-19T08:37:25.597Z,49.0274
2023-05-19T08:38:27.276Z,49.3432
2023-05-19T08:39:28.876Z,48.3250
2023-05-19T08:40:30.711Z,48.3464
2023-05-19T08:41:32.300Z,49.1388
2023-05-19T08:42:34.839Z,48.8976
2023-05-19T08:43:35.356Z,48.7773
2023-05-19T08:44:37.109Z,48.4066
2023-05-19T08:45:38.832Z,47.5047
2023-05-19T08:46:40.454Z,48.8773
2023-05-19T08:47:42.076Z,50.1943
2023-05-19T08:48:43.709Z,49.4153
2023-05-19T08:49:45.305Z,48.8876
2023-05-19T08:50:46.945Z,48.1985
2023-05-19T08:51:48.700Z,49.4872
2023-05-19T08:52:52.958Z,50.1297
2023-05-19T08:53:51.913Z,50.3012
2023-05-19T08:54:53.470Z,50.5880
2023-05-19T08:55:56.162Z,51.2304
2023-05-19T08:56:56.782Z,49.8752
2023-05-19T08:57:58.388Z,51.7082
2023-05-19T08:58:59.990Z,52.4886
2023-05-19T09:00:01.669Z,52.5305
2023-05-19T09:01:03.322Z,51.9533
2023-05-19T09:02:05.702Z,51.8384
2023-05-19T09:04:08.373Z,52.6306
2023-05-19T09:05:09.948Z,52.9159
2023-05-19T09:06:11.513Z,52.6233
2023-05-19T09:07:13.190Z,51.9134
2023-05-19T09:08:14.960Z,50.8921
2023-05-19T09:09:16.481Z,52.3185
2023-05-19T09:10:18.177Z,53.0401
2023-05-19T09:11:19.761Z,53.6569
2023-05-19T09:12:21.538Z,52.6924
2023-05-19T09:13:23.038Z,52.2576
2023-05-19T09:14:24.667Z,51.5124
2023-05-19T09:15:26.321Z,52.4553
2023-05-19T09:16:29.942Z,53.5614
2023-05-19T09:17:29.631Z,53.8134
2023-05-19T09:18:31.315Z,53.9380
2023-05-19T09:19:33.036Z,51.7013
2023-05-19T09:20:34.638Z,51.9534
2023-05-19T09:21:36.172Z,52.8382
2023-05-19T09:22:38.225Z,54.4613
2023-05-19T09:23:39.469Z,53.5563
2023-05-19T09:24:41.202Z,53.5417
2023-05-19T09:25:42.716Z,51.3476
2023-05-19T09:26:44.425Z,52.4502
2023-05-19T09:27:46.160Z,53.1622
2023-05-19T09:28:47.735Z,54.4884
2023-05-19T09:29:49.303Z,53.4078
2023-05-19T09:30:51.012Z,52.6358
2023-05-19T09:31:52.738Z,51.3571
2023-05-19T09:32:54.341Z,52.0334
2023-05-19T09:33:56.074Z,54.2114
2023-05-19T09:34:57.549Z,53.9541
2023-05-19T09:35:59.175Z,53.5416
2023-05-19T09:37:00.903Z,51.4659
2023-05-19T09:38:02.488Z,52.1507
2023-05-19T09:39:04.229Z,52.8038
2023-05-19T09:40:05.798Z,53.5341
2023-05-19T09:41:07.484Z,52.7106
2023-05-19T09:42:09.082Z,52.4397
2023-05-19T09:43:10.730Z,51.4067
2023-05-19T09:44:12.400Z,51.6260
2023-05-19T09:45:14.043Z,53.1173
2023-05-19T09:46:15.595Z,52.8176
2023-05-19T09:47:17.313Z,52.7576
2023-05-19T09:48:18.922Z,50.9511
2023-05-19T09:49:20.618Z,51.2915
2023-05-19T09:50:22.208Z,52.0449
2023-05-19T09:51:23.855Z,52.9523
2023-05-19T09:52:25.503Z,52.5964
2023-05-19T09:53:27.226Z,50.9614
2023-05-19T09:54:28.849Z,50.0738
2023-05-19T09:55:31.099Z,50.2304
2023-05-19T09:56:32.120Z,50.6954
2023-05-19T09:57:33.696Z,50.6336
2023-05-19T09:58:35.563Z,50.0206
2023-05-19T09:59:37.041Z,48.4966
2023-05-19T10:00:38.703Z,49.4366
2023-05-19T10:01:40.389Z,49.4513
2023-05-19T10:02:41.960Z,50.3520
2023-05-19T10:03:43.535Z,49.5299
2023-05-19T10:04:45.854Z,48.8973
2023-05-19T10:05:46.883Z,47.9192
2023-05-19T10:06:48.461Z,49.5318
2023-05-19T10:07:50.114Z,49.2516
2023-05-19T10:08:51.741Z,49.3779
2023-05-19T10:09:53.752Z,48.7413
2023-05-19T10:10:55.072Z,47.5289
2023-05-19T10:11:57.181Z,48.6328
2023-05-19T10:12:58.381Z,48.7042
2023-05-19T10:14:00.012Z,48.5695
2023-05-19T10:15:01.598Z,49.0308
2023-05-19T10:16:03.586Z,47.5101
2023-05-19T10:17:05.069Z,48.4228
2023-05-19T10:18:06.557Z,49.1601
2023-05-19T10:19:08.206Z,48.2525
2023-05-19T10:20:09.841Z,48.4431
2023-05-19T10:21:11.495Z,47.4770
2023-05-19T10:22:13.049Z,47.6582
2023-05-19T10:23:15.159Z,48.4689
2023-05-19T10:24:16.301Z,48.0935
2023-05-19T10:25:17.924Z,47.4196
2023-05-19T10:26:19.523Z,47.0448
2023-05-19T10:27:21.247Z,46.8292
2023-05-19T10:28:22.916Z,47.8580
2023-05-19T10:29:24.666Z,48.4509
2023-05-19T10:30:26.137Z,47.9973
2023-05-19T10:31:27.787Z,47.3856
2023-05-19T10:32:29.698Z,46.6769
2023-05-19T10:33:31.631Z,46.6869
2023-05-19T10:34:32.699Z,47.3365
2023-05-19T10:35:34.521Z,47.6078
2023-05-19T10:36:36.052Z,47.5559
2023-05-19T10:37:38.186Z,47.6723
2023-05-19T10:38:39.296Z,47.5057
2023-05-19T10:39:41.109Z,47.2992
2023-05-19T10:40:42.765Z,47.9124
2023-05-19T10:41:45.137Z,47.6462
2023-05-19T10:42:46.019Z,47.3280
2023-05-19T10:43:47.678Z,46.4823
2023-05-19T10:44:49.340Z,47.2496
2023-05-19T10:45:51.003Z,48.0700
2023-05-19T10:46:54.162Z,47.1855
2023-05-19T10:47:54.257Z,46.7190
2023-05-19T10:48:56.966Z,46.7724
2023-05-19T10:49:57.467Z,47.9910
2023-05-19T10:50:59.160Z,50.0582
2023-05-19T10:52:00.758Z,49.9076
2023-05-19T10:53:03.376Z,50.2417
2023-05-19T10:54:04.154Z,49.6709
2023-05-19T10:55:05.738Z,49.0767
2023-05-19T10:56:07.449Z,50.3663
2023-05-19T10:57:09.125Z,51.1438
2023-05-19T10:58:10.838Z,50.9456
2023-05-19T10:59:12.874Z,50.8606
2023-05-19T11:00:15.177Z,49.2659
2023-05-19T11:01:15.761Z,50.2811
2023-05-19T11:02:18.399Z,51.3647
2023-05-19T11:03:20.229Z,51.7427
2023-05-19T11:04:20.781Z,51.8995
2023-05-19T11:05:22.232Z,50.7610
2023-05-19T11:06:23.955Z,50.4478
2023-05-19T11:07:25.556Z,51.4627
2023-05-19T11:08:27.298Z,52.1963
2023-05-19T11:09:39.879Z,52.0810
2023-05-19T11:10:31.348Z,51.2218
2023-05-19T11:11:33.230Z,51.6933
2023-05-19T11:12:33.710Z,51.8736
2023-05-19T11:13:36.667Z,52.7883
2023-05-19T11:14:37.057Z,54.6009
2023-05-19T11:15:38.575Z,55.4018
2023-05-19T11:16:41.404Z,50.5969
2023-05-19T11:17:41.983Z,51.2341
2023-05-19T11:18:43.685Z,51.6328
2023-05-19T11:19:45.249Z,52.2775
2023-05-19T11:20:47.071Z,53.8783
2023-05-19T11:21:48.570Z,53.2897
2023-05-19T11:22:50.169Z,51.8018
2023-05-19T11:23:51.938Z,52.9171
2023-05-19T11:24:53.890Z,53.1052
2023-05-19T11:25:55.895Z,53.9821
2023-05-19T11:26:56.739Z,55.0557
2023-05-19T11:27:58.497Z,52.0990
2023-05-19T11:29:00.023Z,52.7980
2023-05-19T11:30:01.836Z,53.7541
2023-05-19T11:31:03.404Z,54.4441
2023-05-19T11:32:05.078Z,55.7960
2023-05-19T11:33:06.686Z,54.7748
2023-05-19T11:34:08.247Z,51.9657
2023-05-19T11:35:09.932Z,53.2483
2023-05-19T11:36:11.579Z,53.6495
2023-05-19T11:37:13.353Z,54.4839
2023-05-19T11:38:15.795Z,55.8727
2023-05-19T11:39:17.465Z,51.8376
2023-05-19T11:40:18.126Z,52.3533
2023-05-19T11:41:20.848Z,53.0952
2023-05-19T11:42:21.474Z,53.7980
2023-05-19T11:43:23.145Z,55.2833
2023-05-19T11:44:24.742Z,53.4161
2023-05-19T11:45:26.392Z,50.8269
2023-05-19T11:46:29.066Z,52.5599
2023-05-19T11:47:32.042Z,52.6834
2023-05-19T11:48:31.319Z,54.0573
2023-05-19T11:49:32.787Z,55.2473
2023-05-19T11:50:34.451Z,52.3407
2023-05-19T11:51:36.126Z,51.1633
2023-05-19T11:52:38.277Z,52.0572
2023-05-19T11:53:39.388Z,52.5418
2023-05-19T11:54:41.029Z,53.9934
2023-05-19T11:55:42.654Z,54.3555
2023-05-19T11:56:44.367Z,50.9460
2023-05-19T11:57:56.038Z,51.8238
2023-05-19T11:58:47.602Z,52.4021
2023-05-19T11:59:49.314Z,52.8578
2023-05-19T12:00:50.863Z,54.4182
2023-05-19T12:01:52.565Z,52.9832
2023-05-19T12:02:54.390Z,50.4987
2023-05-19T12:03:55.986Z,52.5076
2023-05-19T12:04:57.541Z,52.9410
2023-05-19T12:05:59.193Z,54.2766
2023-05-19T12:07:00.777Z,55.0335
2023-05-19T12:08:02.463Z,51.8589
2023-05-19T12:09:04.000Z,50.7882
2023-05-19T12:10:05.718Z,52.0562
2023-05-19T12:11:07.302Z,52.5343
2023-05-19T12:12:09.128Z,54.8951
2023-05-19T12:13:10.930Z,55.5590
2023-05-19T12:14:12.271Z,51.6960
2023-05-19T12:15:13.858Z,51.3341
2023-05-19T12:16:15.586Z,52.2598
2023-05-19T12:17:17.195Z,52.9292
2023-05-19T12:18:18.864Z,54.4684
2023-05-19T12:19:20.480Z,53.7728
2023-05-19T12:20:22.086Z,50.9723
2023-05-19T12:21:23.767Z,52.0228
2023-05-19T12:22:25.515Z,52.6558
2023-05-19T12:23:27.090Z,53.9463
2023-05-19T12:24:28.679Z,55.6255
2023-05-19T12:25:30.348Z,53.3553
2023-05-19T12:26:32.054Z,50.6863